EDDF

Frankfurt am Main International Airport

ICAO Code EDDF
IATA Code FRA
Name Frankfurt am Main International Airport
Location Frankfurt-am-Main, Hesse, DE
Elevation 364 Feet / 110.9 Meters
Latitude 50.02640152
Longitude 8.54312992
METAR EDDF 090950Z 23006KT 9999 FEW004 SCT010 02/01 Q1007 TEMPO BKN010
Extra information Display Charts and CFS
Display NOTAMS
Runway Length Width Surface Elevation
07C 13123 ft 197 ft ASP 329 ft
07L 9186 ft 148 ft CON 305 ft
07R 13123 ft 148 ft CON 328 ft
18 13123 ft 148 ft CON 326 ft
25C 13123 ft 197 ft ASP 364 ft
25R 9186 ft 148 ft CON 353 ft
25L 13123 ft 148 ft CON 362 ft
36 13123 ft 148 ft CON 316 ft